Time;durP1;ratioP1;P1;durP2;ratioP2;P2;SDS_P1;SDS_P2;PMS_P1;PMS_P2;Temp;Humidity;BMP_temperature;BMP_pressure;BME280_temperature;BME280_humidity;BME280_pressure;Samples;Min_cycle;Max_cycle;Signal;HPM_P1;HPM_P2
2023/08/10 00:01:33;;;;;;;2.78;0.35;;;19.80;85.10;;;;;;4965440;28;20043;-84
2023/08/10 00:03:59;;;;;;;0.33;0.33;;;19.90;84.50;;;;;;4966915;28;20078;-85
2023/08/10 00:06:25;;;;;;;0.00;0.00;;;20.00;84.70;;;;;;4965437;28;20027;-83
2023/08/10 00:08:50;;;;;;;0.20;0.20;;;20.00;84.40;;;;;;4964924;28;20035;-81
2023/08/10 00:11:16;;;;;;;0.20;0.20;;;19.90;85.20;;;;;;4964526;28;20039;-82
2023/08/10 00:13:42;;;;;;;0.10;0.10;;;19.90;85.00;;;;;;4959842;28;20043;-81
2023/08/10 00:16:08;;;;;;;0.10;0.10;;;19.90;85.10;;;;;;4964503;28;20870;-82
2023/08/10 00:18:34;;;;;;;0.45;0.28;;;19.90;84.70;;;;;;4964421;28;20162;-82
2023/08/10 00:21:01;;;;;;;1.50;0.73;;;20.00;84.30;;;;;;4964435;28;20038;-82
2023/08/10 00:23:27;;;;;;;0.20;0.20;;;20.00;84.20;;;;;;4963632;28;20022;-84
2023/08/10 00:25:52;;;;;;;0.57;0.37;;;19.90;84.20;;;;;;4957416;28;20039;-82
2023/08/10 00:28:18;;;;;;;0.00;0.00;;;19.90;84.40;;;;;;4966070;28;20026;-81
2023/08/10 00:30:44;;;;;;;0.40;0.40;;;19.80;85.30;;;;;;4961093;28;20050;-81
2023/08/10 00:33:09;;;;;;;0.20;0.20;;;19.70;86.40;;;;;;4964873;28;20035;-81
2023/08/10 00:35:38;;;;;;;0.20;0.20;;;19.90;84.40;;;;;;4958775;28;20126;-81
2023/08/10 00:38:04;;;;;;;0.00;0.00;;;20.00;83.20;;;;;;4963693;28;20109;-82
2023/08/10 00:40:30;;;;;;;0.30;0.30;;;20.00;83.00;;;;;;4957429;28;20043;-82
2023/08/10 00:43:00;;;;;;;0.10;0.10;;;19.90;83.40;;;;;;4964559;28;20034;-83
2023/08/10 00:45:27;;;;;;;0.22;0.22;;;19.60;85.60;;;;;;4963330;28;20821;-84
2023/08/10 00:47:53;;;;;;;2.75;0.55;;;19.50;86.30;;;;;;4969569;28;20031;-84
2023/08/10 00:50:20;;;;;;;3.53;0.40;;;19.60;85.60;;;;;;4962025;28;20034;-83
2023/08/10 00:52:46;;;;;;;0.55;0.55;;;19.70;84.80;;;;;;4968760;28;20027;-82
2023/08/10 00:55:11;;;;;;;0.38;0.38;;;19.80;83.90;;;;;;4965304;28;20129;-84
2023/08/10 00:57:38;;;;;;;0.10;0.10;;;19.90;83.40;;;;;;4967697;28;20034;-83
2023/08/10 01:00:06;;;;;;;0.20;0.20;;;19.90;83.00;;;;;;4967404;28;20057;-82
2023/08/10 01:02:32;;;;;;;0.20;0.20;;;19.90;83.00;;;;;;4967018;28;20039;-82
2023/08/10 01:04:57;;;;;;;0.00;0.00;;;19.80;83.50;;;;;;4960184;28;20050;-82
2023/08/10 01:07:41;;;;;;;0.77;0.77;;;19.50;84.80;;;;;;4980794;28;20524;-82
2023/08/10 01:10:19;;;;;;;0.30;0.30;;;19.50;85.00;;;;;;4963527;28;20494;-84
2023/08/10 01:12:57;;;;;;;1.45;0.98;;;19.50;85.10;;;;;;4962788;28;20031;-82
2023/08/10 01:19:52;;;;;;;0.10;0.10;;;19.20;86.90;;;;;;4954748;28;20053;-83
2023/08/10 01:59:08;;;;;;;0.10;0.10;;;19.30;82.80;;;;;;4927488;29;20467;-83
2023/08/10 02:09:08;;;;;;;0.20;0.17;;;19.20;82.10;;;;;;4921568;28;20078;-82
2023/08/10 02:15:59;;;;;;;0.75;0.75;;;19.30;81.00;;;;;;4927526;28;20055;-82
2023/08/10 02:19:29;;;;;;;0.30;0.17;;;19.40;79.50;;;;;;4931067;28;20803;-83
2023/08/10 02:29:05;;;;;;;0.65;0.35;;;19.50;78.90;;;;;;4945199;28;20086;-84
2023/08/10 02:31:32;;;;;;;0.03;0.03;;;19.40;79.30;;;;;;4952311;28;20601;-85
2023/08/10 02:33:58;;;;;;;0.67;0.67;;;19.50;78.50;;;;;;4945686;28;20050;-84
2023/08/10 02:36:24;;;;;;;0.53;0.40;;;19.40;78.70;;;;;;4947429;28;20495;-85
2023/08/10 02:38:49;;;;;;;0.00;0.00;;;19.40;79.00;;;;;;4952278;28;20046;-83
2023/08/10 02:41:15;;;;;;;0.20;0.20;;;19.20;80.00;;;;;;4949028;28;20028;-84
2023/08/10 02:43:41;;;;;;;43.47;1.17;;;19.20;80.40;;;;;;4946696;28;20192;-85
2023/08/10 02:46:06;;;;;;;0.40;0.40;;;19.30;79.00;;;;;;4948726;28;20039;-85
2023/08/10 02:48:32;;;;;;;0.33;0.33;;;19.40;78.40;;;;;;4967497;28;20038;-84
2023/08/10 02:50:58;;;;;;;0.10;0.10;;;19.30;78.90;;;;;;4948959;28;20039;-86
2023/08/10 02:53:23;;;;;;;0.10;0.10;;;19.00;80.70;;;;;;4953703;28;20114;-85
2023/08/10 02:55:49;;;;;;;0.23;0.23;;;19.00;80.10;;;;;;4950249;28;20676;-84
2023/08/10 02:58:15;;;;;;;0.30;0.30;;;19.00;79.60;;;;;;4948055;28;20110;-83
2023/08/10 03:00:41;;;;;;;0.10;0.10;;;19.00;79.60;;;;;;4951954;28;20031;-85
2023/08/10 03:03:06;;;;;;;0.10;0.10;;;19.00;79.40;;;;;;4952827;28;20042;-86
2023/08/10 03:05:32;;;;;;;0.20;0.20;;;18.90;79.50;;;;;;4944472;28;20074;-84
2023/08/10 03:07:58;;;;;;;1.23;0.77;;;18.80;80.00;;;;;;4950641;28;20035;-82
2023/08/10 03:10:23;;;;;;;1.40;0.30;;;18.90;80.50;;;;;;4945718;28;20039;-82
2023/08/10 03:12:49;;;;;;;0.30;0.30;;;18.90;79.20;;;;;;4947927;28;20043;-83
2023/08/10 03:15:15;;;;;;;0.00;0.00;;;18.90;78.80;;;;;;4948500;28;20499;-82
2023/08/10 03:17:41;;;;;;;0.17;0.17;;;19.10;78.30;;;;;;4951961;28;20043;-82
2023/08/10 03:20:12;;;;;;;0.10;0.10;;;18.90;78.60;;;;;;4950690;28;20799;-84
2023/08/10 03:22:40;;;;;;;1.35;0.60;;;18.90;79.10;;;;;;4954139;28;20166;-83
2023/08/10 03:25:07;;;;;;;0.25;0.25;;;18.70;79.50;;;;;;4953565;28;20586;-83
2023/08/10 03:27:33;;;;;;;0.10;0.10;;;18.80;79.30;;;;;;4965970;28;20070;-81
2023/08/10 03:29:58;;;;;;;0.00;0.00;;;18.90;78.80;;;;;;4965319;28;20110;-80
2023/08/10 03:32:24;;;;;;;0.73;0.73;;;18.80;79.10;;;;;;4965557;28;20454;-80
2023/08/10 03:34:50;;;;;;;0.50;0.27;;;18.80;78.90;;;;;;4962440;28;20049;-80
2023/08/10 03:37:15;;;;;;;0.07;0.07;;;18.80;79.00;;;;;;4975892;28;20071;-80
2023/08/10 03:39:41;;;;;;;0.20;0.20;;;18.60;79.80;;;;;;4958311;28;20062;-81
2023/08/10 03:42:07;;;;;;;0.00;0.00;;;18.50;80.30;;;;;;4965038;28;20073;-82
2023/08/10 03:44:32;;;;;;;0.20;0.20;;;18.50;80.50;;;;;;4963636;28;20082;-83
2023/08/10 03:46:58;;;;;;;0.00;0.00;;;18.40;80.80;;;;;;4965137;28;20035;-81
2023/08/10 03:49:24;;;;;;;0.15;0.15;;;18.70;79.70;;;;;;4968271;28;20030;-81
2023/08/10 03:51:50;;;;;;;0.10;0.10;;;18.60;79.90;;;;;;4965136;28;20023;-82
2023/08/10 03:54:17;;;;;;;0.38;0.38;;;18.60;79.50;;;;;;4963762;28;20329;-82
2023/08/10 03:56:43;;;;;;;0.00;0.00;;;18.50;79.90;;;;;;4963122;28;20872;-83
2023/08/10 03:59:11;;;;;;;0.88;0.38;;;18.50;80.20;;;;;;4965208;28;20863;-81
2023/08/10 04:01:37;;;;;;;0.10;0.10;;;18.40;80.70;;;;;;4969984;28;20116;-82
2023/08/10 04:04:03;;;;;;;0.35;0.35;;;18.40;80.90;;;;;;4963304;28;20050;-84
2023/08/10 04:06:29;;;;;;;0.50;0.50;;;18.30;81.60;;;;;;4965027;28;20118;-83
2023/08/10 04:08:55;;;;;;;0.88;0.68;;;18.30;81.60;;;;;;4965179;28;20041;-83
2023/08/10 04:11:21;;;;;;;0.37;0.37;;;18.40;81.10;;;;;;4964282;28;20034;-81
2023/08/10 04:13:47;;;;;;;0.17;0.17;;;18.40;81.60;;;;;;4968191;28;20035;-81
2023/08/10 04:16:13;;;;;;;0.17;0.17;;;18.40;81.00;;;;;;4964356;28;20097;-82
2023/08/10 04:18:39;;;;;;;0.53;0.53;;;18.40;81.50;;;;;;4964575;28;20110;-81
2023/08/10 04:21:06;;;;;;;0.00;0.00;;;18.30;81.70;;;;;;4965141;28;20026;-82
2023/08/10 04:23:31;;;;;;;;;;;18.30;81.80;;;;;;4964980;28;20058;-84
2023/08/10 04:25:57;;;;;;;0.17;0.17;;;18.10;82.40;;;;;;4964527;28;19921;-83
2023/08/10 04:28:23;;;;;;;0.37;0.37;;;18.20;82.30;;;;;;4967391;28;20038;-83
2023/08/10 04:30:49;;;;;;;0.20;0.20;;;18.10;82.80;;;;;;4965810;28;20037;-81
2023/08/10 04:33:15;;;;;;;0.47;0.33;;;18.00;83.40;;;;;;4964783;28;20035;-80
2023/08/10 04:35:41;;;;;;;0.10;0.10;;;18.00;83.40;;;;;;4962258;28;20027;-81
2023/08/10 04:38:06;;;;;;;0.07;0.07;;;18.00;83.00;;;;;;4963850;28;20692;-80
2023/08/10 04:40:32;;;;;;;0.10;0.10;;;18.10;82.70;;;;;;4963476;28;20121;-83
2023/08/10 04:42:59;;;;;;;0.17;0.17;;;18.10;82.60;;;;;;4962133;28;20031;-81
2023/08/10 04:45:25;;;;;;;0.00;0.00;;;18.10;82.30;;;;;;4964655;28;20262;-80
2023/08/10 04:47:50;;;;;;;0.57;0.30;;;18.10;82.50;;;;;;4964337;28;20035;-81
2023/08/10 04:50:17;;;;;;;0.03;0.03;;;18.10;82.70;;;;;;4964159;28;20057;-81
2023/08/10 04:52:43;;;;;;;0.38;0.38;;;18.10;82.80;;;;;;4964045;28;20055;-81
2023/08/10 04:55:10;;;;;;;0.00;0.00;;;18.10;82.80;;;;;;4963672;28;20102;-80
2023/08/10 04:57:37;;;;;;;0.45;0.45;;;18.10;83.30;;;;;;4960043;28;20081;-81
2023/08/10 05:00:09;;;;;;;0.32;0.32;;;18.10;83.40;;;;;;4963621;28;20121;-80
2023/08/10 05:02:35;;;;;;;0.10;0.10;;;18.20;83.00;;;;;;4964271;28;20034;-81
2023/08/10 05:05:02;;;;;;;0.45;0.45;;;18.30;82.70;;;;;;4966598;28;20026;-84
2023/08/10 05:07:28;;;;;;;0.73;0.20;;;18.40;81.90;;;;;;4963850;28;20446;-78
2023/08/10 05:09:55;;;;;;;0.60;0.30;;;18.50;81.20;;;;;;4963119;28;20035;-76
2023/08/10 05:12:21;;;;;;;0.43;0.43;;;18.60;81.50;;;;;;4964093;28;20038;-76
2023/08/10 05:14:47;;;;;;;0.25;0.25;;;18.70;81.20;;;;;;4963229;28;20499;-79
2023/08/10 05:17:12;;;;;;;0.10;0.10;;;18.70;81.60;;;;;;4961477;28;20049;-78
2023/08/10 05:19:38;;;;;;;0.07;0.07;;;18.60;81.60;;;;;;4963404;28;20030;-82
2023/08/10 05:22:04;;;;;;;0.37;0.37;;;18.70;81.10;;;;;;4962388;28;20509;-84
2023/08/10 05:24:32;;;;;;;0.22;0.22;;;18.80;80.80;;;;;;4963697;28;20550;-83
2023/08/10 05:26:58;;;;;;;1.35;0.20;;;18.70;81.10;;;;;;4965078;28;20531;-83
2023/08/10 05:29:24;;;;;;;0.08;0.08;;;18.60;81.70;;;;;;4967125;28;20030;-82
2023/08/10 05:31:50;;;;;;;0.00;0.00;;;18.60;81.50;;;;;;4964346;28;20050;-83
2023/08/10 05:34:15;;;;;;;0.38;0.38;;;18.50;81.60;;;;;;4961906;28;20030;-83
2023/08/10 05:36:41;;;;;;;0.00;0.00;;;18.50;81.20;;;;;;4966919;28;20057;-82
2023/08/10 05:39:08;;;;;;;0.00;0.00;;;18.60;81.00;;;;;;4967884;28;20027;-82
2023/08/10 05:41:34;;;;;;;0.10;0.10;;;18.60;80.70;;;;;;4962994;28;20619;-82
2023/08/10 05:43:59;;;;;;;0.00;0.00;;;18.60;80.50;;;;;;4966276;28;20080;-82
2023/08/10 05:46:49;;;;;;;0.37;0.37;;;18.60;80.50;;;;;;4966460;28;20045;-82
2023/08/10 05:49:15;;;;;;;0.13;0.13;;;18.70;80.00;;;;;;4965983;28;20038;-83
2023/08/10 05:51:41;;;;;;;2.80;1.07;;;18.80;80.60;;;;;;4966268;28;20570;-84
2023/08/10 05:54:06;;;;;;;0.23;0.23;;;18.80;81.20;;;;;;4966496;28;20031;-81
2023/08/10 05:56:32;;;;;;;0.00;0.00;;;18.90;81.10;;;;;;4964179;28;20402;-84
2023/08/10 05:58:58;;;;;;;0.10;0.10;;;18.90;80.70;;;;;;4970562;28;20031;-84
2023/08/10 06:01:24;;;;;;;0.00;0.00;;;18.90;79.90;;;;;;4964410;28;20015;-85
2023/08/10 06:03:49;;;;;;;0.23;0.20;;;18.90;80.80;;;;;;4966075;28;20527;-85
2023/08/10 06:06:16;;;;;;;0.10;0.10;;;18.70;82.30;;;;;;4964779;28;20033;-85
2023/08/10 06:08:42;;;;;;;1.17;0.55;;;18.60;83.90;;;;;;4967073;28;20030;-85
2023/08/10 06:11:08;;;;;;;0.05;0.05;;;18.60;84.20;;;;;;4963092;28;20044;-82
2023/08/10 06:13:35;;;;;;;0.00;0.00;;;18.70;84.20;;;;;;4969150;28;20398;-83
2023/08/10 06:16:01;;;;;;;0.10;0.10;;;18.70;83.60;;;;;;4970836;28;20049;-84
2023/08/10 06:18:27;;;;;;;0.10;0.10;;;18.80;82.90;;;;;;4970121;28;20070;-85
2023/08/10 06:20:53;;;;;;;0.55;0.28;;;18.90;82.20;;;;;;4964000;28;20035;-84
2023/08/10 06:23:19;;;;;;;0.03;0.03;;;19.00;82.40;;;;;;4968110;28;20042;-82
2023/08/10 06:25:44;;;;;;;0.37;0.37;;;18.90;83.10;;;;;;4968382;28;20051;-82
2023/08/10 06:28:10;;;;;;;0.17;0.17;;;19.00;83.20;;;;;;4983726;28;20035;-80
2023/08/10 06:30:36;;;;;;;0.50;0.50;;;19.20;82.00;;;;;;4964370;28;20065;-83
2023/08/10 06:33:02;;;;;;;0.57;0.50;;;19.10;82.70;;;;;;4967614;28;20046;-84
2023/08/10 06:35:28;;;;;;;1.70;0.47;;;18.90;82.60;;;;;;4960351;28;20035;-85
2023/08/10 06:37:54;;;;;;;0.93;0.73;;;19.10;80.70;;;;;;4961425;28;20106;-82
2023/08/10 06:40:20;;;;;;;0.00;0.00;;;18.90;80.60;;;;;;4970314;28;20105;-85
2023/08/10 06:42:45;;;;;;;0.08;0.08;;;18.90;80.90;;;;;;4970909;28;20043;-86
2023/08/10 06:45:11;;;;;;;0.13;0.13;;;19.00;79.80;;;;;;4960493;28;20118;-87
2023/08/10 06:47:37;;;;;;;0.63;0.63;;;19.20;78.70;;;;;;4960936;28;20054;-87
2023/08/10 06:50:05;;;;;;;0.00;0.00;;;19.30;78.40;;;;;;4981123;28;20042;-83
2023/08/10 06:52:30;;;;;;;0.00;0.00;;;20.40;76.70;;;;;;4960953;28;20031;-82
2023/08/10 06:54:56;;;;;;;0.00;0.00;;;20.70;73.50;;;;;;4970245;28;20015;-82
2023/08/10 06:57:22;;;;;;;0.07;0.07;;;19.80;76.50;;;;;;4968360;28;20782;-84
2023/08/10 06:59:48;;;;;;;0.00;0.00;;;19.60;77.50;;;;;;4969939;28;20838;-81
2023/08/10 07:02:16;;;;;;;0.20;0.20;;;19.50;78.50;;;;;;4969263;28;20042;-82
2023/08/10 07:04:44;;;;;;;0.00;0.00;;;19.70;78.10;;;;;;4970704;28;20027;-84
2023/08/10 07:07:10;;;;;;;0.50;0.50;;;19.70;77.90;;;;;;4972528;28;20023;-82
2023/08/10 07:09:36;;;;;;;0.28;0.28;;;19.70;78.40;;;;;;4969408;28;20058;-82
2023/08/10 07:12:03;;;;;;;0.10;0.10;;;19.70;77.90;;;;;;4970562;28;20114;-85
2023/08/10 07:14:29;;;;;;;0.05;0.05;;;20.30;76.40;;;;;;4971038;28;20031;-82
2023/08/10 07:16:55;;;;;;;0.93;0.93;;;20.20;77.20;;;;;;4972929;28;20404;-82
2023/08/10 07:19:21;;;;;;;0.00;0.00;;;20.30;77.10;;;;;;4976026;28;20026;-84
2023/08/10 07:21:46;;;;;;;0.00;0.00;;;20.60;76.50;;;;;;4963609;28;20035;-83
2023/08/10 07:24:12;;;;;;;0.00;0.00;;;21.20;74.70;;;;;;4971842;28;20037;-83
2023/08/10 07:26:38;;;;;;;0.10;0.10;;;21.60;73.90;;;;;;4971760;28;20090;-82
2023/08/10 07:29:04;;;;;;;0.00;0.00;;;22.20;71.50;;;;;;4977696;28;20034;-81
2023/08/10 07:31:31;;;;;;;0.00;0.00;;;23.10;68.40;;;;;;4970483;28;20402;-81
2023/08/10 07:33:59;;;;;;;0.13;0.13;;;22.50;69.70;;;;;;4971093;28;20262;-82
2023/08/10 07:36:26;;;;;;;0.52;0.20;;;21.70;74.10;;;;;;4970327;28;20023;-81
2023/08/10 07:38:55;;;;;;;0.47;0.45;;;21.40;76.10;;;;;;4967559;28;20097;-85
2023/08/10 07:41:21;;;;;;;0.50;0.35;;;21.30;76.10;;;;;;4966689;28;20540;-87
2023/08/10 07:43:47;;;;;;;;;;;20.80;77.60;;;;;;4970701;28;20034;-83
2023/08/10 07:46:13;;;;;;;0.10;0.10;;;20.60;77.90;;;;;;4971150;28;19918;-82
2023/08/10 07:48:39;;;;;;;0.55;0.55;;;20.50;77.90;;;;;;4970425;28;20058;-82
2023/08/10 07:51:05;;;;;;;0.00;0.00;;;20.70;77.80;;;;;;4971185;28;20053;-82
2023/08/10 07:53:31;;;;;;;0.90;0.60;;;21.00;75.00;;;;;;4967957;28;20181;-83
2023/08/10 07:55:57;;;;;;;0.50;0.50;;;21.30;74.70;;;;;;4970004;28;20074;-83
2023/08/10 07:58:23;;;;;;;0.10;0.10;;;21.40;74.30;;;;;;4970996;28;20476;-82
2023/08/10 08:00:48;;;;;;;0.47;0.47;;;21.60;73.50;;;;;;4970737;28;20037;-84
2023/08/10 08:03:14;;;;;;;0.63;0.63;;;21.90;72.70;;;;;;4969584;28;20026;-82
2023/08/10 08:05:40;;;;;;;0.13;0.13;;;23.00;69.10;;;;;;4971241;28;20035;-81
2023/08/10 08:08:07;;;;;;;0.00;0.00;;;22.40;70.00;;;;;;4970049;28;20069;-82
2023/08/10 08:10:33;;;;;;;;;;;22.20;70.10;;;;;;4970426;28;20035;-83
2023/08/10 08:12:59;;;;;;;;;;;22.80;69.60;;;;;;4970187;28;19917;-82
2023/08/10 08:15:25;;;;;;;0.00;0.00;;;27.50;60.10;;;;;;4969877;28;19906;-82
2023/08/10 08:18:09;;;;;;;;;;;28.90;56.70;;;;;;4970549;28;20039;-83
2023/08/10 08:20:35;;;;;;;0.28;0.28;;;31.40;53.20;;;;;;4970759;28;20000;-80
2023/08/10 08:23:01;;;;;;;0.10;0.10;;;31.80;49.20;;;;;;4971781;28;20110;-80
2023/08/10 08:25:28;;;;;;;0.10;0.10;;;29.30;53.90;;;;;;4971156;28;20419;-83
2023/08/10 08:27:53;;;;;;;0.43;0.43;;;31.90;52.50;;;;;;4970866;28;20035;-81
2023/08/10 08:30:19;;;;;;;0.00;0.00;;;32.80;48.30;;;;;;4971289;28;20046;-81
2023/08/10 08:32:45;;;;;;;;;;;33.10;48.80;;;;;;4970416;28;20027;-81
2023/08/10 08:35:10;;;;;;;0.30;0.30;;;30.90;50.20;;;;;;4969627;28;19910;-82
2023/08/10 08:37:36;;;;;;;;;;;33.00;49.10;;;;;;4971626;28;20570;-85
2023/08/10 08:40:01;;;;;;;;;;;32.00;50.40;;;;;;4971124;28;19906;-84
2023/08/10 08:42:27;;;;;;;;;;;30.80;51.70;;;;;;4971363;28;19913;-84
2023/08/10 08:44:54;;;;;;;;;;;31.80;50.10;;;;;;4967294;28;19924;-87
2023/08/10 08:47:19;;;;;;;0.00;0.00;;;30.70;51.10;;;;;;4964216;28;20000;-81
2023/08/10 08:49:45;;;;;;;0.20;0.20;;;28.30;53.70;;;;;;4965579;28;20037;-83
2023/08/10 08:52:11;;;;;;;0.43;0.28;;;27.60;57.00;;;;;;4965586;28;20027;-83
2023/08/10 08:54:36;;;;;;;0.20;0.20;;;27.00;59.80;;;;;;4964455;28;20101;-84
2023/08/10 08:57:02;;;;;;;0.17;0.17;;;26.40;59.20;;;;;;4965495;28;20057;-84
2023/08/10 08:59:28;;;;;;;0.00;0.00;;;26.40;60.80;;;;;;4963701;28;20030;-81
2023/08/10 09:01:55;;;;;;;0.20;0.20;;;25.60;61.90;;;;;;4963818;28;20027;-83
2023/08/10 09:04:20;;;;;;;0.47;0.47;;;25.40;61.00;;;;;;4980528;28;20062;-83
2023/08/10 09:06:46;;;;;;;0.00;0.00;;;25.60;61.90;;;;;;4965645;28;20109;-83
2023/08/10 09:09:12;;;;;;;0.22;0.22;;;25.60;61.30;;;;;;4963752;28;20043;-82
2023/08/10 09:11:38;;;;;;;0.90;0.40;;;25.20;62.30;;;;;;4979755;28;20027;-81
2023/08/10 09:14:06;;;;;;;0.00;0.00;;;25.10;61.60;;;;;;4965490;28;20471;-80
2023/08/10 09:16:32;;;;;;;0.20;0.20;;;25.30;63.30;;;;;;4961133;28;20109;-81
2023/08/10 09:18:58;;;;;;;;;;;25.70;61.10;;;;;;4964243;28;20031;-82
2023/08/10 09:21:23;;;;;;;;;;;26.50;61.20;;;;;;4980992;28;19913;-81
2023/08/10 09:23:53;;;;;;;0.03;0.03;;;26.50;58.30;;;;;;4965739;28;19973;-80
2023/08/10 09:26:20;;;;;;;1.27;0.65;;;26.00;61.00;;;;;;4963830;28;20085;-80
2023/08/10 09:28:48;;;;;;;0.40;0.40;;;25.80;62.30;;;;;;4965679;28;20125;-84
2023/08/10 09:31:14;;;;;;;0.13;0.13;;;25.40;62.10;;;;;;4965689;28;20491;-83
2023/08/10 09:33:40;;;;;;;0.00;0.00;;;25.00;63.20;;;;;;4965911;28;20077;-80
2023/08/10 09:36:07;;;;;;;0.00;0.00;;;25.40;64.00;;;;;;4964887;28;20042;-82
2023/08/10 09:38:33;;;;;;;0.05;0.05;;;25.80;62.80;;;;;;4964838;28;20613;-83
2023/08/10 09:41:10;;;;;;;0.43;0.43;;;28.20;59.30;;;;;;4964994;28;20042;-84
2023/08/10 09:43:37;;;;;;;0.00;0.00;;;30.90;55.60;;;;;;4965382;28;20058;-80
2023/08/10 09:46:07;;;;;;;0.00;0.00;;;32.00;52.50;;;;;;4965154;28;20030;-81
2023/08/10 09:48:37;;;;;;;0.05;0.05;;;33.60;49.80;;;;;;4965019;28;20030;-83
2023/08/10 09:51:08;;;;;;;0.47;0.47;;;34.90;46.80;;;;;;4964681;28;20514;-83
2023/08/10 09:53:35;;;;;;;0.30;0.30;;;35.30;47.00;;;;;;4964678;28;20031;-84
2023/08/10 09:56:01;;;;;;;0.43;0.43;;;35.30;45.80;;;;;;4964655;28;20788;-83
2023/08/10 09:58:28;;;;;;;0.00;0.00;;;33.60;47.40;;;;;;4964757;28;20136;-83
2023/08/10 10:00:54;;;;;;;0.10;0.08;;;33.10;47.50;;;;;;4965264;28;20038;-80
2023/08/10 10:03:20;;;;;;;;;;;33.20;49.20;;;;;;4963796;28;20117;-81
2023/08/10 10:05:48;;;;;;;0.00;0.00;;;35.90;44.00;;;;;;4963913;28;20108;-84
2023/08/10 10:08:14;;;;;;;0.10;0.10;;;36.80;41.80;;;;;;4965719;28;20038;-81
2023/08/10 10:10:41;;;;;;;;;;;36.40;42.80;;;;;;4965743;28;20034;-81
2023/08/10 10:13:15;;;;;;;0.00;0.00;;;36.20;43.60;;;;;;4969091;28;19910;-82
2023/08/10 10:15:45;;;;;;;2.65;1.02;;;37.00;42.20;;;;;;4967491;28;20050;-82
2023/08/10 10:18:11;;;;;;;0.00;0.00;;;36.60;40.60;;;;;;4968480;28;20039;-87
2023/08/10 10:20:43;;;;;;;0.00;0.00;;;36.40;41.20;;;;;;4963492;28;20118;-87
2023/08/10 10:23:20;;;;;;;0.43;0.40;;;35.90;41.40;;;;;;4968707;28;20507;-81
2023/08/10 10:26:00;;;;;;;1.30;0.63;;;35.40;40.50;;;;;;4968535;28;20047;-82
2023/08/10 10:28:31;;;;;;;0.00;0.00;;;36.30;43.60;;;;;;4965704;28;20027;-83
2023/08/10 10:31:09;;;;;;;0.47;0.47;;;36.60;41.80;;;;;;4969092;28;20027;-84
2023/08/10 10:33:36;;;;;;;0.20;0.10;;;35.60;41.80;;;;;;4967986;28;20038;-80
2023/08/10 10:36:05;;;;;;;2.47;0.65;;;33.90;41.90;;;;;;4968578;28;20049;-85
2023/08/10 10:38:31;;;;;;;0.22;0.22;;;31.80;45.50;;;;;;4968030;28;20098;-84
2023/08/10 10:41:14;;;;;;;0.10;0.10;;;31.70;46.10;;;;;;4968887;28;20062;-84
2023/08/10 10:43:40;;;;;;;0.40;0.30;;;31.20;48.30;;;;;;4968143;28;20057;-80
2023/08/10 10:46:06;;;;;;;0.00;0.00;;;30.80;49.60;;;;;;4968557;28;20066;-83
2023/08/10 10:48:36;;;;;;;0.03;0.03;;;30.70;51.80;;;;;;4967626;28;20124;-83
2023/08/10 10:51:04;;;;;;;0.08;0.08;;;30.30;50.00;;;;;;4967793;28;20640;-83
2023/08/10 10:53:29;;;;;;;0.00;0.00;;;30.40;50.70;;;;;;4966623;28;20034;-81
2023/08/10 10:55:57;;;;;;;0.20;0.20;;;30.00;53.00;;;;;;4967794;28;20035;-82
2023/08/10 10:58:25;;;;;;;0.05;0.05;;;30.00;55.90;;;;;;4960144;28;20039;-84
2023/08/10 11:00:51;;;;;;;0.20;0.20;;;30.00;55.20;;;;;;4967886;28;20434;-82
2023/08/10 11:03:19;;;;;;;0.20;0.20;;;29.80;51.60;;;;;;4968040;28;20097;-82
2023/08/10 11:05:45;;;;;;;0.10;0.10;;;29.40;54.50;;;;;;4967730;28;20031;-80
2023/08/10 11:08:12;;;;;;;0.00;0.00;;;29.50;54.10;;;;;;4967748;28;20027;-89
2023/08/10 11:10:40;;;;;;;1.10;0.52;;;29.60;53.40;;;;;;4967970;28;20042;-83
2023/08/10 11:13:07;;;;;;;1.08;0.73;;;29.50;55.80;;;;;;4967724;28;20793;-84
2023/08/10 11:15:34;;;;;;;1.17;0.60;;;29.60;55.80;;;;;;4967443;28;20034;-82
2023/08/10 11:18:00;;;;;;;0.63;0.47;;;29.70;57.90;;;;;;4967479;28;20494;-82
2023/08/10 11:20:26;;;;;;;0.30;0.30;;;29.60;56.30;;;;;;4967142;28;20027;-81
2023/08/10 11:22:53;;;;;;;0.45;0.22;;;29.50;53.90;;;;;;4967245;28;20027;-84
2023/08/10 11:25:25;;;;;;;0.20;0.20;;;29.60;54.40;;;;;;4967181;28;20054;-81
2023/08/10 11:27:53;;;;;;;0.13;0.13;;;29.30;55.30;;;;;;4966604;28;20038;-86
2023/08/10 11:30:21;;;;;;;5.68;0.45;;;29.40;58.00;;;;;;4966094;28;20034;-81
2023/08/10 11:32:49;;;;;;;0.00;0.00;;;29.60;56.90;;;;;;4966529;28;20029;-81
2023/08/10 11:35:19;;;;;;;0.15;0.15;;;29.40;55.60;;;;;;4965392;28;20061;-82
2023/08/10 11:37:45;;;;;;;0.00;0.00;;;29.50;56.10;;;;;;4966506;28;20042;-82
2023/08/10 11:40:11;;;;;;;0.32;0.20;;;29.30;56.20;;;;;;4965642;28;20038;-81
2023/08/10 11:42:42;;;;;;;3.83;1.00;;;29.30;59.40;;;;;;4965293;28;20043;-81
2023/08/10 11:45:09;;;;;;;0.30;0.30;;;29.30;59.30;;;;;;4965954;28;20122;-81
2023/08/10 11:47:46;;;;;;;0.20;0.20;;;29.50;58.90;;;;;;4965938;28;20462;-81
2023/08/10 11:50:14;;;;;;;1.00;1.00;;;29.50;58.90;;;;;;4965708;28;20139;-82
2023/08/10 11:52:40;;;;;;;0.13;0.13;;;29.30;58.30;;;;;;4965789;28;20034;-81
2023/08/10 11:55:12;;;;;;;0.52;0.50;;;29.20;59.40;;;;;;4980455;28;21355;-81
2023/08/10 11:57:39;;;;;;;1.13;1.02;;;29.10;59.40;;;;;;4963634;28;20467;-81
2023/08/10 12:00:33;;;;;;;1.65;1.23;;;29.20;59.90;;;;;;4965909;28;20487;-81
2023/08/10 12:03:14;;;;;;;1.38;1.23;;;29.50;60.00;;;;;;4968023;28;20483;-81
2023/08/10 12:05:46;;;;;;;0.00;0.00;;;29.50;59.80;;;;;;4965769;28;20364;-81
2023/08/10 12:08:16;;;;;;;1.98;0.70;;;29.30;59.50;;;;;;4965863;28;20181;-81
2023/08/10 12:10:42;;;;;;;0.75;0.63;;;29.40;59.80;;;;;;4963935;28;20023;-81
2023/08/10 12:13:12;;;;;;;0.65;0.65;;;29.30;60.30;;;;;;4965515;28;20026;-81
2023/08/10 12:15:49;;;;;;;1.33;1.20;;;29.60;61.00;;;;;;4962282;28;20026;-81
2023/08/10 12:18:17;;;;;;;0.20;0.20;;;29.60;59.10;;;;;;4965704;28;20051;-81
2023/08/10 12:20:44;;;;;;;0.00;0.00;;;29.90;61.40;;;;;;4965332;28;20125;-81
2023/08/10 12:23:10;;;;;;;0.35;0.35;;;29.40;61.30;;;;;;4965200;28;20034;-81
2023/08/10 12:25:36;;;;;;;1.20;0.57;;;29.60;61.90;;;;;;4965246;28;20077;-81
2023/08/10 12:28:03;;;;;;;0.05;0.05;;;30.10;60.00;;;;;;4965515;28;20045;-81
2023/08/10 12:30:28;;;;;;;;;;;30.70;60.50;;;;;;4953719;28;20064;-81
2023/08/10 12:32:55;;;;;;;2.42;1.33;;;30.10;58.70;;;;;;4965152;28;20001;-81
2023/08/10 12:35:20;;;;;;;1.17;0.38;;;30.10;62.30;;;;;;4964173;28;20027;-81
2023/08/10 12:37:48;;;;;;;1.02;0.75;;;29.80;59.60;;;;;;4965251;28;20042;-81
2023/08/10 12:40:14;;;;;;;0.35;0.35;;;29.40;58.60;;;;;;4963795;28;20042;-81
2023/08/10 12:42:40;;;;;;;0.22;0.22;;;29.30;59.10;;;;;;4964779;28;20026;-81
2023/08/10 12:45:10;;;;;;;0.77;0.77;;;29.20;60.00;;;;;;4965167;28;20496;-81
2023/08/10 12:47:40;;;;;;;1.40;0.50;;;29.30;59.40;;;;;;4965323;28;20109;-81
2023/08/10 12:50:16;;;;;;;0.55;0.55;;;29.60;59.00;;;;;;4964773;28;20061;-81
2023/08/10 12:52:42;;;;;;;;;;;29.70;57.50;;;;;;4965008;28;20034;-81
2023/08/10 12:55:08;;;;;;;0.52;0.52;;;29.80;57.30;;;;;;4964901;28;20278;-82
2023/08/10 12:57:34;;;;;;;0.32;0.15;;;29.70;58.20;;;;;;4964794;28;20027;-81
2023/08/10 13:00:05;;;;;;;0.30;0.30;;;29.20;58.60;;;;;;4965224;28;20787;-80
2023/08/10 13:02:31;;;;;;;2.63;0.45;;;29.20;59.70;;;;;;4964555;28;20042;-81
2023/08/10 13:04:57;;;;;;;0.10;0.10;;;28.80;58.20;;;;;;4964494;28;20104;-81
2023/08/10 13:07:22;;;;;;;0.08;0.08;;;28.80;59.50;;;;;;4964594;28;20048;-81
2023/08/10 13:09:48;;;;;;;0.17;0.13;;;29.30;59.20;;;;;;4964758;28;20037;-81
2023/08/10 13:12:14;;;;;;;0.45;0.45;;;29.70;58.40;;;;;;4964319;28;20078;-81
2023/08/10 13:14:39;;;;;;;0.60;0.60;;;29.50;56.80;;;;;;4964350;28;20054;-80
2023/08/10 13:17:08;;;;;;;0.08;0.08;;;29.60;56.60;;;;;;4962958;28;20314;-81
2023/08/10 13:19:34;;;;;;;2.50;1.15;;;29.60;57.10;;;;;;4963817;28;20046;-81
2023/08/10 13:22:01;;;;;;;;;;;29.40;56.30;;;;;;4964339;28;20027;-81
2023/08/10 13:24:27;;;;;;;0.60;0.60;;;29.50;56.40;;;;;;4964183;28;19910;-81
2023/08/10 13:26:53;;;;;;;0.15;0.15;;;29.50;56.20;;;;;;4964267;28;20019;-81
2023/08/10 13:29:19;;;;;;;0.90;0.75;;;29.80;55.50;;;;;;4955862;28;20034;-81
2023/08/10 13:31:44;;;;;;;0.32;0.32;;;29.90;55.90;;;;;;4963321;28;20077;-81
2023/08/10 13:34:11;;;;;;;0.77;0.77;;;30.10;56.10;;;;;;4964444;28;20034;-81
2023/08/10 13:36:40;;;;;;;1.23;0.30;;;30.20;56.10;;;;;;4964163;28;20030;-81
2023/08/10 13:39:06;;;;;;;0.45;0.45;;;30.20;55.80;;;;;;4963291;28;20042;-81
2023/08/10 13:41:37;;;;;;;0.60;0.60;;;29.60;56.30;;;;;;4964474;28;20030;-81
2023/08/10 13:44:03;;;;;;;1.65;0.52;;;29.60;56.90;;;;;;4955078;28;20043;-81
2023/08/10 13:46:29;;;;;;;0.17;0.17;;;29.70;56.00;;;;;;4965012;28;20611;-80
2023/08/10 13:48:55;;;;;;;1.65;1.55;;;29.40;56.40;;;;;;4968269;28;20035;-81
2023/08/10 13:51:22;;;;;;;0.25;0.25;;;29.60;56.50;;;;;;4968091;28;20023;-80